Time;durP1;ratioP1;P1;durP2;ratioP2;P2;SDS_P1;SDS_P2;PMS_P1;PMS_P2;Temp;Humidity;BMP_temperature;BMP_pressure;BME280_temperature;BME280_humidity;BME280_pressure;Samples;Min_cycle;Max_cycle;Signal;HPM_P1;HPM_P2
2023/05/18 00:00:13;;;;;;;5.45;1.83;;;10.20;90.80;;;;;;6106344;23;20013;-82
2023/05/18 00:02:39;;;;;;;4.72;2.03;;;10.20;90.90;;;;;;6131931;23;20009;-82
2023/05/18 00:05:05;;;;;;;5.65;2.08;;;10.20;90.90;;;;;;6132062;23;20006;-83
2023/05/18 00:07:32;;;;;;;6.28;2.22;;;10.10;90.90;;;;;;6107539;23;20006;-83
2023/05/18 00:10:00;;;;;;;5.45;1.67;;;10.10;91.00;;;;;;6131675;23;20047;-83
2023/05/18 00:12:25;;;;;;;7.80;2.63;;;10.10;91.10;;;;;;6131160;23;20001;-83
2023/05/18 00:14:51;;;;;;;8.35;2.13;;;10.10;91.10;;;;;;6156519;23;20383;-83
2023/05/18 00:17:17;;;;;;;5.97;2.10;;;10.00;91.10;;;;;;6106446;23;20391;-82
2023/05/18 00:19:45;;;;;;;5.72;2.20;;;10.00;91.20;;;;;;6157227;23;20005;-83
2023/05/18 00:22:17;;;;;;;5.80;2.38;;;10.00;91.30;;;;;;6107957;23;20085;-83
2023/05/18 00:24:45;;;;;;;4.95;2.05;;;9.90;91.40;;;;;;6131058;23;20009;-83
2023/05/18 00:27:11;;;;;;;5.82;2.15;;;9.90;91.50;;;;;;6131135;23;20013;-82
2023/05/18 00:29:37;;;;;;;5.28;2.00;;;9.90;91.50;;;;;;6131301;23;20014;-83
2023/05/18 00:32:03;;;;;;;5.28;2.00;;;9.90;91.50;;;;;;6107407;23;20064;-82
2023/05/18 00:34:29;;;;;;;8.00;2.67;;;9.90;91.60;;;;;;6136993;23;20016;-82
2023/05/18 00:36:54;;;;;;;5.60;2.08;;;9.90;91.60;;;;;;6163607;23;20020;-83
2023/05/18 00:39:20;;;;;;;6.57;2.03;;;9.90;91.60;;;;;;6145999;23;20005;-83
2023/05/18 00:41:45;;;;;;;6.63;2.30;;;9.90;91.60;;;;;;6187740;23;19997;-82
2023/05/18 00:44:11;;;;;;;7.20;2.25;;;9.90;91.60;;;;;;6187769;23;20028;-83
2023/05/18 00:46:37;;;;;;;4.95;1.85;;;9.80;91.60;;;;;;6182974;23;20008;-81
2023/05/18 00:49:03;;;;;;;7.57;2.17;;;9.80;91.60;;;;;;6173883;23;20450;-83
2023/05/18 00:51:31;;;;;;;6.57;2.13;;;9.80;91.70;;;;;;6187895;23;20033;-83
2023/05/18 00:53:58;;;;;;;5.57;2.08;;;9.80;91.70;;;;;;6136313;23;20001;-83
2023/05/18 00:56:25;;;;;;;6.00;2.28;;;9.80;91.70;;;;;;6186294;23;19997;-83
2023/05/18 00:58:54;;;;;;;7.57;2.45;;;9.80;91.70;;;;;;6135718;23;20335;-83
2023/05/18 01:01:29;;;;;;;5.00;2.03;;;9.80;91.70;;;;;;6135885;23;20005;-83
2023/05/18 01:04:01;;;;;;;5.35;2.30;;;9.80;91.70;;;;;;6182567;23;20013;-83
2023/05/18 01:06:28;;;;;;;7.95;2.40;;;9.80;91.80;;;;;;6159593;23;20029;-82
2023/05/18 01:08:54;;;;;;;5.75;2.00;;;9.80;91.80;;;;;;6184181;23;20017;-82
2023/05/18 01:11:53;;;;;;;4.95;1.92;;;9.80;91.80;;;;;;6185709;23;20454;-83
2023/05/18 01:15:07;;;;;;;5.85;2.10;;;9.80;91.80;;;;;;6184801;23;20009;-83
2023/05/18 01:17:41;;;;;;;5.10;2.10;;;9.80;91.90;;;;;;6186086;23;20092;-82
2023/05/18 01:20:15;;;;;;;5.97;2.03;;;9.80;91.80;;;;;;6186167;23;20028;-83
2023/05/18 01:23:19;;;;;;;4.72;2.13;;;9.80;91.90;;;;;;6161546;23;20001;-83
2023/05/18 01:25:53;;;;;;;7.68;2.40;;;9.70;91.90;;;;;;6187953;23;20008;-83
2023/05/18 01:28:28;;;;;;;6.10;1.95;;;9.60;91.90;;;;;;6161445;23;20104;-83
2023/05/18 01:30:55;;;;;;;5.82;1.77;;;9.60;92.00;;;;;;6161601;23;20008;-83
2023/05/18 01:33:21;;;;;;;5.45;2.40;;;9.70;92.00;;;;;;6161770;23;20081;-83
2023/05/18 01:35:47;;;;;;;5.85;1.98;;;9.70;92.00;;;;;;6161461;23;20005;-83
2023/05/18 01:38:18;;;;;;;5.30;2.10;;;9.70;92.00;;;;;;6161644;23;20442;-83
2023/05/18 01:40:50;;;;;;;6.45;2.20;;;9.70;92.10;;;;;;6149128;23;20001;-83
2023/05/18 01:43:19;;;;;;;5.38;1.85;;;9.60;92.10;;;;;;6187911;23;20007;-83
2023/05/18 01:45:49;;;;;;;4.88;1.75;;;9.60;92.10;;;;;;6161436;23;20049;-83
2023/05/18 01:48:19;;;;;;;4.47;1.85;;;9.60;92.20;;;;;;6186388;23;20443;-83
2023/05/18 01:50:47;;;;;;;3.72;1.83;;;9.60;92.50;;;;;;6187815;23;20005;-83
2023/05/18 01:53:19;;;;;;;6.90;1.95;;;9.60;92.30;;;;;;6161552;23;19998;-83
2023/05/18 01:55:45;;;;;;;5.03;2.13;;;9.60;92.30;;;;;;6161594;23;19997;-83
2023/05/18 01:58:12;;;;;;;8.63;2.08;;;9.50;92.30;;;;;;6137564;23;20008;-83
2023/05/18 02:00:38;;;;;;;7.38;2.40;;;9.50;92.30;;;;;;6136896;23;20009;-83
2023/05/18 02:03:04;;;;;;;4.95;2.00;;;9.50;92.30;;;;;;6187528;23;20003;-83
2023/05/18 02:05:30;;;;;;;5.03;2.25;;;9.50;92.30;;;;;;6137200;23;20001;-83
2023/05/18 02:07:56;;;;;;;8.35;2.22;;;9.50;92.40;;;;;;6162181;23;20001;-83
2023/05/18 02:10:22;;;;;;;7.70;2.15;;;9.50;92.50;;;;;;6165837;23;20029;-84
2023/05/18 02:12:51;;;;;;;4.45;2.10;;;9.40;92.50;;;;;;6163219;23;20539;-83
2023/05/18 02:15:17;;;;;;;6.93;2.70;;;9.40;92.60;;;;;;6190269;23;19985;-84
2023/05/18 02:17:46;;;;;;;6.38;2.65;;;9.30;92.60;;;;;;6164937;23;19989;-82
2023/05/18 02:20:12;;;;;;;5.57;2.10;;;9.30;92.70;;;;;;6165071;23;20005;-84
2023/05/18 02:22:38;;;;;;;4.25;2.17;;;9.30;92.70;;;;;;6176983;23;20001;-81
2023/05/18 02:25:04;;;;;;;5.95;2.38;;;9.30;92.80;;;;;;6161776;23;20005;-83
2023/05/18 02:27:31;;;;;;;9.57;2.30;;;9.20;92.80;;;;;;6187937;23;20327;-83
2023/05/18 02:29:56;;;;;;;5.47;2.25;;;9.20;92.80;;;;;;6161061;23;20013;-83
2023/05/18 02:32:22;;;;;;;6.53;2.42;;;9.30;92.90;;;;;;6160786;23;20024;-83
2023/05/18 02:34:51;;;;;;;6.40;2.58;;;9.20;93.00;;;;;;6136680;23;20453;-83
2023/05/18 02:37:17;;;;;;;7.28;2.47;;;9.20;93.00;;;;;;6185920;23;20486;-82
2023/05/18 02:39:43;;;;;;;6.43;2.40;;;9.20;93.00;;;;;;6161038;23;20005;-83
2023/05/18 02:42:09;;;;;;;5.05;2.28;;;9.20;93.10;;;;;;6160534;23;20058;-83
2023/05/18 02:44:34;;;;;;;6.60;2.58;;;9.20;93.10;;;;;;6160567;23;20080;-83
2023/05/18 02:47:00;;;;;;;5.03;2.20;;;9.20;93.20;;;;;;6187157;23;20001;-83
2023/05/18 02:49:26;;;;;;;5.70;2.17;;;9.20;93.10;;;;;;6161337;23;20016;-83
2023/05/18 02:51:51;;;;;;;5.72;2.33;;;9.20;93.20;;;;;;6161063;23;20001;-84
2023/05/18 02:54:17;;;;;;;7.78;2.90;;;9.10;93.20;;;;;;6161001;23;20007;-82
2023/05/18 02:56:43;;;;;;;6.32;2.22;;;9.10;93.30;;;;;;6160551;23;20006;-82
2023/05/18 02:59:08;;;;;;;5.18;2.60;;;9.10;93.30;;;;;;6161106;23;20090;-83
2023/05/18 03:01:36;;;;;;;4.80;2.20;;;9.10;93.40;;;;;;6136353;23;20001;-83
2023/05/18 03:04:02;;;;;;;6.50;2.47;;;9.10;93.40;;;;;;6136456;23;20419;-83
2023/05/18 03:06:29;;;;;;;6.38;2.45;;;9.00;93.50;;;;;;6136023;23;20012;-83
2023/05/18 03:08:55;;;;;;;6.60;2.40;;;9.00;93.50;;;;;;6160517;23;20009;-82
2023/05/18 03:11:21;;;;;;;5.18;2.45;;;9.10;93.50;;;;;;6136214;23;20430;-83
2023/05/18 03:13:48;;;;;;;9.05;2.70;;;9.00;93.50;;;;;;6186936;23;20005;-83
2023/05/18 03:16:14;;;;;;;5.57;2.00;;;9.00;93.50;;;;;;6160635;23;19997;-85
2023/05/18 03:18:40;;;;;;;7.00;2.35;;;9.00;93.50;;;;;;6160752;23;20486;-83
2023/05/18 03:21:06;;;;;;;7.65;2.83;;;9.00;93.60;;;;;;6160265;23;20005;-83
2023/05/18 03:23:33;;;;;;;6.80;2.67;;;9.00;93.60;;;;;;6184933;23;20009;-82
2023/05/18 03:26:01;;;;;;;5.20;2.33;;;8.90;93.70;;;;;;6135997;23;20379;-83
2023/05/18 03:28:30;;;;;;;6.55;2.63;;;8.90;93.70;;;;;;6160877;23;20009;-84
2023/05/18 03:30:56;;;;;;;6.35;2.63;;;8.90;93.80;;;;;;6186868;23;20012;-83
2023/05/18 03:33:25;;;;;;;6.18;2.40;;;8.90;93.80;;;;;;6160264;23;20020;-83
2023/05/18 03:35:51;;;;;;;5.20;2.58;;;8.80;94.00;;;;;;6185198;23;20009;-83
2023/05/18 03:38:16;;;;;;;5.85;2.50;;;8.90;93.90;;;;;;6161414;23;20085;-83
2023/05/18 03:40:42;;;;;;;4.60;2.17;;;8.80;94.00;;;;;;6147860;23;19981;-82
2023/05/18 03:43:08;;;;;;;6.35;2.53;;;8.80;94.00;;;;;;6213968;23;20009;-82
2023/05/18 03:45:33;;;;;;;4.70;2.20;;;8.80;94.10;;;;;;6214145;23;19988;-83
2023/05/18 03:47:59;;;;;;;6.43;2.53;;;8.80;94.10;;;;;;6188128;23;20012;-82
2023/05/18 03:50:25;;;;;;;8.25;2.80;;;8.90;94.20;;;;;;6173683;23;20435;-82
2023/05/18 03:52:51;;;;;;;7.43;2.80;;;8.80;94.20;;;;;;6161957;23;20005;-82
2023/05/18 03:55:20;;;;;;;5.65;2.47;;;8.80;94.20;;;;;;6160619;23;20032;-83
2023/05/18 03:57:46;;;;;;;7.35;2.75;;;8.80;94.20;;;;;;6186888;23;20474;-82
2023/05/18 04:00:12;;;;;;;5.25;2.53;;;8.90;94.20;;;;;;6159979;23;20442;-83
2023/05/18 04:02:38;;;;;;;6.90;2.50;;;8.80;94.30;;;;;;6135338;23;20009;-83
2023/05/18 04:05:05;;;;;;;8.15;3.05;;;8.80;94.30;;;;;;6135334;23;20056;-83
2023/05/18 04:07:31;;;;;;;8.05;2.65;;;8.90;94.40;;;;;;6186123;23;20035;-83
2023/05/18 04:09:56;;;;;;;7.30;2.65;;;8.90;94.40;;;;;;6160064;23;20331;-83
2023/05/18 04:12:22;;;;;;;5.07;2.55;;;8.90;94.40;;;;;;6160017;23;20328;-83
2023/05/18 04:14:48;;;;;;;6.50;2.28;;;8.90;94.40;;;;;;6135702;23;20001;-83
2023/05/18 04:17:20;;;;;;;7.20;2.72;;;8.90;94.40;;;;;;6160162;23;20005;-83
2023/05/18 04:19:47;;;;;;;8.68;2.53;;;8.90;94.50;;;;;;6160926;23;20096;-83
2023/05/18 04:22:12;;;;;;;5.40;2.20;;;8.90;94.50;;;;;;6159911;23;20009;-83
2023/05/18 04:24:40;;;;;;;6.93;2.80;;;9.00;94.40;;;;;;6135647;23;20005;-83
2023/05/18 04:27:07;;;;;;;5.85;2.38;;;9.00;94.50;;;;;;6135468;23;20063;-83
2023/05/18 04:29:38;;;;;;;6.50;2.67;;;9.00;94.50;;;;;;6160293;23;20032;-83
2023/05/18 04:32:07;;;;;;;5.38;2.08;;;9.00;94.50;;;;;;6160237;23;20029;-83
2023/05/18 04:34:34;;;;;;;6.47;2.50;;;9.10;94.50;;;;;;6186374;23;20093;-83
2023/05/18 04:37:01;;;;;;;5.65;2.58;;;9.10;94.50;;;;;;6159864;23;20336;-83
2023/05/18 04:39:28;;;;;;;7.75;2.78;;;9.10;94.50;;;;;;6135576;23;20451;-83
2023/05/18 04:41:59;;;;;;;8.73;2.65;;;9.10;94.50;;;;;;6135132;23;20028;-82
2023/05/18 04:44:26;;;;;;;5.78;2.75;;;9.10;94.50;;;;;;6186209;23;20006;-82
2023/05/18 04:46:53;;;;;;;6.22;2.70;;;9.10;94.40;;;;;;6186195;23;20068;-83
2023/05/18 04:49:22;;;;;;;4.63;2.28;;;9.10;94.40;;;;;;6135308;23;20045;-83
2023/05/18 04:51:58;;;;;;;8.88;2.97;;;9.20;94.40;;;;;;6185916;23;20029;-83
2023/05/18 04:54:30;;;;;;;7.93;2.53;;;9.20;94.30;;;;;;6160474;23;20059;-83
2023/05/18 04:56:57;;;;;;;6.30;2.50;;;9.20;94.40;;;;;;6135657;23;20002;-82
2023/05/18 04:59:25;;;;;;;4.18;2.05;;;9.20;94.40;;;;;;6135268;23;20079;-83
2023/05/18 05:01:51;;;;;;;7.57;2.90;;;9.30;94.40;;;;;;6186183;23;20005;-83
2023/05/18 05:04:18;;;;;;;6.30;2.80;;;9.30;94.40;;;;;;6184469;23;20012;-83
2023/05/18 05:06:43;;;;;;;5.20;2.20;;;9.30;94.40;;;;;;6184920;23;20386;-83
2023/05/18 05:09:12;;;;;;;7.50;2.63;;;9.40;94.40;;;;;;6186227;23;20009;-82
2023/05/18 05:11:38;;;;;;;9.82;2.83;;;9.40;94.40;;;;;;6187314;23;20304;-82
2023/05/18 05:14:04;;;;;;;6.63;2.60;;;9.40;94.40;;;;;;6163199;23;20008;-82
2023/05/18 05:16:29;;;;;;;4.15;2.42;;;9.40;94.40;;;;;;6188008;23;20021;-83
2023/05/18 05:18:55;;;;;;;5.40;2.50;;;9.50;94.50;;;;;;6188576;23;19990;-82
2023/05/18 05:21:21;;;;;;;6.55;2.83;;;9.60;94.40;;;;;;6161834;23;20009;-82
2023/05/18 05:23:46;;;;;;;9.43;3.28;;;9.50;94.30;;;;;;6167635;23;20076;-83
2023/05/18 05:26:12;;;;;;;7.00;2.42;;;9.50;94.40;;;;;;6159840;23;20008;-83
2023/05/18 05:28:38;;;;;;;7.15;2.97;;;9.50;94.40;;;;;;6185523;23;20471;-83
2023/05/18 05:31:03;;;;;;;6.03;2.25;;;9.60;94.40;;;;;;6159246;23;20450;-83
2023/05/18 05:33:29;;;;;;;5.28;2.10;;;9.60;94.30;;;;;;6134699;23;20064;-84
2023/05/18 05:35:55;;;;;;;8.90;3.22;;;9.60;94.30;;;;;;6186292;23;20008;-85
2023/05/18 05:38:20;;;;;;;5.85;2.40;;;9.70;94.20;;;;;;6134897;23;20118;-83
2023/05/18 05:40:46;;;;;;;10.57;2.92;;;9.80;94.10;;;;;;6159867;23;20001;-83
2023/05/18 05:43:12;;;;;;;6.22;2.38;;;9.80;93.80;;;;;;6185824;23;20005;-84
2023/05/18 05:45:38;;;;;;;6.57;2.60;;;9.70;93.80;;;;;;6186015;23;20371;-83
2023/05/18 05:48:04;;;;;;;8.48;2.90;;;9.80;93.80;;;;;;6185399;23;20048;-84
2023/05/18 05:50:31;;;;;;;10.90;3.30;;;9.80;93.70;;;;;;6160038;23;20077;-83
2023/05/18 05:52:56;;;;;;;7.20;2.33;;;9.80;93.70;;;;;;6186080;23;20001;-83
2023/05/18 05:55:22;;;;;;;7.35;2.63;;;9.80;93.70;;;;;;6185438;23;20008;-82
2023/05/18 05:57:48;;;;;;;8.50;2.45;;;9.70;93.50;;;;;;6159607;23;20016;-83
2023/05/18 06:00:14;;;;;;;4.30;2.08;;;9.80;93.60;;;;;;6159087;23;20076;-83
2023/05/18 06:02:45;;;;;;;6.28;2.45;;;9.80;93.50;;;;;;6186013;23;20025;-83
2023/05/18 06:05:11;;;;;;;10.60;2.65;;;9.80;93.50;;;;;;6136014;23;20033;-83
2023/05/18 06:07:40;;;;;;;6.85;2.22;;;9.90;93.50;;;;;;6160355;23;20008;-82
2023/05/18 06:10:09;;;;;;;6.25;2.50;;;9.90;93.50;;;;;;6161315;23;20024;-83
2023/05/18 06:12:38;;;;;;;6.80;2.10;;;9.90;93.50;;;;;;6161602;23;20059;-83
2023/05/18 06:15:04;;;;;;;6.75;1.90;;;10.00;93.50;;;;;;6161550;23;20009;-81
2023/05/18 06:17:29;;;;;;;6.32;2.25;;;10.00;93.40;;;;;;6136829;23;20085;-83
2023/05/18 06:19:55;;;;;;;7.20;2.63;;;10.10;93.40;;;;;;6161813;23;20012;-83
2023/05/18 06:22:22;;;;;;;7.50;2.45;;;10.10;93.30;;;;;;6137096;23;20001;-82
2023/05/18 06:24:47;;;;;;;4.75;2.15;;;10.10;93.20;;;;;;6188165;23;20427;-83
2023/05/18 06:27:17;;;;;;;6.28;2.33;;;10.10;93.10;;;;;;6161939;23;20005;-82
2023/05/18 06:29:43;;;;;;;8.25;2.80;;;10.10;93.20;;;;;;6163753;23;20096;-83
2023/05/18 06:32:08;;;;;;;7.30;3.00;;;10.10;93.10;;;;;;6188092;23;20451;-82
2023/05/18 06:34:38;;;;;;;6.57;2.08;;;10.10;93.00;;;;;;6160909;23;20014;-82
2023/05/18 06:37:04;;;;;;;3.75;1.80;;;10.20;93.10;;;;;;6163632;23;20005;-83
2023/05/18 06:39:30;;;;;;;8.07;2.20;;;10.30;93.10;;;;;;6190687;23;20365;-82
2023/05/18 06:41:55;;;;;;;9.25;2.30;;;10.30;93.00;;;;;;6184648;23;19985;-83
2023/05/18 06:44:21;;;;;;;8.05;2.40;;;10.30;92.80;;;;;;6187093;23;20037;-83
2023/05/18 06:46:49;;;;;;;6.47;2.38;;;10.30;92.90;;;;;;6187410;23;19997;-82
2023/05/18 06:49:18;;;;;;;7.20;2.67;;;10.40;92.90;;;;;;6182909;23;20040;-83
2023/05/18 06:51:44;;;;;;;5.82;2.47;;;10.40;92.90;;;;;;6161665;23;20012;-83
2023/05/18 06:54:10;;;;;;;5.65;2.60;;;10.50;92.80;;;;;;6161032;23;20320;-83
2023/05/18 06:56:35;;;;;;;8.20;2.90;;;10.40;92.90;;;;;;6136444;23;20001;-82
2023/05/18 06:59:01;;;;;;;8.18;2.67;;;10.50;92.90;;;;;;6160795;23;20016;-83
2023/05/18 07:01:29;;;;;;;7.45;2.65;;;10.50;92.80;;;;;;6160579;23;20009;-83
2023/05/18 07:03:55;;;;;;;9.05;2.05;;;10.50;92.90;;;;;;6160964;23;20005;-83
2023/05/18 07:06:21;;;;;;;8.32;2.63;;;10.60;93.00;;;;;;6186662;23;20486;-83
2023/05/18 07:08:47;;;;;;;7.07;2.35;;;10.60;92.90;;;;;;6187027;23;20009;-83
2023/05/18 07:11:13;;;;;;;6.68;2.42;;;10.70;92.90;;;;;;6160551;23;20036;-83
2023/05/18 07:16:48;;;;;;;11.45;2.92;;;10.80;92.80;;;;;;6186530;23;20132;-83
2023/05/18 07:19:14;;;;;;;6.88;2.55;;;10.80;92.60;;;;;;6135308;23;20439;-83
2023/05/18 07:21:40;;;;;;;7.80;2.58;;;10.90;92.90;;;;;;6135529;23;20012;-83
2023/05/18 07:24:05;;;;;;;5.95;2.10;;;11.00;92.60;;;;;;6160775;23;20032;-83
2023/05/18 07:26:31;;;;;;;6.60;2.22;;;11.00;92.60;;;;;;6135714;23;20005;-83
2023/05/18 07:28:57;;;;;;;7.75;2.80;;;11.10;92.70;;;;;;6160622;23;20039;-83
2023/05/18 07:31:22;;;;;;;4.47;1.98;;;11.20;92.70;;;;;;6186537;23;20435;-83
2023/05/18 07:33:48;;;;;;;9.43;2.67;;;11.30;92.70;;;;;;6161031;23;20029;-83
2023/05/18 07:36:14;;;;;;;7.47;2.38;;;11.30;92.60;;;;;;6135374;23;20462;-83
2023/05/18 07:38:43;;;;;;;6.47;2.72;;;11.40;92.60;;;;;;6160662;23;20016;-83
2023/05/18 07:41:08;;;;;;;10.10;2.40;;;11.50;92.30;;;;;;6160670;23;20427;-83
2023/05/18 07:43:34;;;;;;;5.20;1.90;;;11.60;92.30;;;;;;6159823;23;20009;-83
2023/05/18 07:46:00;;;;;;;6.65;2.20;;;11.60;92.40;;;;;;6159749;23;20507;-83
2023/05/18 07:48:26;;;;;;;7.15;2.35;;;11.70;92.20;;;;;;6186288;23;20044;-83
2023/05/18 07:50:52;;;;;;;8.23;2.42;;;11.70;92.10;;;;;;6160836;23;20031;-83
2023/05/18 07:53:25;;;;;;;7.93;2.47;;;11.70;92.00;;;;;;6135791;23;20154;-84
2023/05/18 07:55:51;;;;;;;7.38;2.45;;;11.70;91.70;;;;;;6187070;23;20005;-83
2023/05/18 07:58:17;;;;;;;8.00;2.60;;;11.70;91.30;;;;;;6160208;23;20056;-83
2023/05/18 08:00:46;;;;;;;4.72;2.50;;;11.70;91.40;;;;;;6160145;23;20008;-83
2023/05/18 08:03:11;;;;;;;9.35;2.58;;;11.80;91.50;;;;;;6186853;23;20427;-83
2023/05/18 08:05:37;;;;;;;7.40;2.63;;;11.80;91.40;;;;;;6186617;23;20009;-83
2023/05/18 08:08:03;;;;;;;8.32;2.25;;;11.80;91.20;;;;;;6136734;23;20005;-83
2023/05/18 08:10:28;;;;;;;8.70;2.90;;;11.90;91.30;;;;;;6137913;23;20009;-83
2023/05/18 08:12:54;;;;;;;8.38;2.30;;;12.00;91.30;;;;;;6174972;23;20005;-83
2023/05/18 08:15:20;;;;;;;7.75;2.55;;;12.00;91.00;;;;;;6187432;23;19989;-82
2023/05/18 08:17:46;;;;;;;7.90;2.83;;;12.00;90.90;;;;;;6212626;23;19997;-84
2023/05/18 08:20:12;;;;;;;8.40;2.70;;;12.10;90.90;;;;;;6176062;23;20073;-83
2023/05/18 08:22:37;;;;;;;9.50;2.33;;;12.10;90.80;;;;;;6174637;23;20351;-82
2023/05/18 08:25:04;;;;;;;6.05;1.98;;;12.20;90.60;;;;;;6164507;23;20419;-83
2023/05/18 08:27:30;;;;;;;7.90;2.95;;;12.40;90.70;;;;;;6136456;23;20083;-84
2023/05/18 08:29:55;;;;;;;5.05;2.05;;;12.40;90.50;;;;;;6135511;23;20033;-84
2023/05/18 08:32:21;;;;;;;6.95;2.40;;;12.50;90.20;;;;;;6159678;23;20007;-83
2023/05/18 08:34:50;;;;;;;10.18;2.50;;;12.50;90.10;;;;;;6134758;23;20005;-82
2023/05/18 08:37:16;;;;;;;5.75;2.30;;;12.60;90.30;;;;;;6135666;23;20025;-84
2023/05/18 08:39:44;;;;;;;11.20;3.15;;;12.60;90.10;;;;;;6159387;23;20015;-83
2023/05/18 08:42:53;;;;;;;8.65;2.90;;;12.60;90.10;;;;;;6135973;23;20011;-83
2023/05/18 08:45:34;;;;;;;8.00;2.50;;;12.70;90.10;;;;;;6139997;23;20012;-83
2023/05/18 08:48:01;;;;;;;9.77;2.80;;;12.80;90.10;;;;;;6186040;23;20067;-83
2023/05/18 08:50:30;;;;;;;5.72;2.20;;;12.90;90.00;;;;;;6159743;23;20005;-83
2023/05/18 08:53:00;;;;;;;7.70;2.33;;;13.10;90.00;;;;;;6185907;23;20080;-84
2023/05/18 08:55:27;;;;;;;6.57;2.70;;;13.20;89.60;;;;;;6134755;23;20009;-84
2023/05/18 08:57:59;;;;;;;13.25;3.00;;;13.20;89.30;;;;;;6159599;23;20466;-83
2023/05/18 09:00:25;;;;;;;9.50;2.63;;;13.30;88.20;;;;;;6159565;23;20088;-83
2023/05/18 09:02:51;;;;;;;7.20;2.50;;;13.30;88.30;;;;;;6159719;23;20032;-84
2023/05/18 09:05:19;;;;;;;6.93;2.10;;;13.30;88.10;;;;;;6159909;23;20315;-84
2023/05/18 09:07:45;;;;;;;5.53;2.03;;;13.30;88.10;;;;;;6157129;23;20012;-84
2023/05/18 09:10:14;;;;;;;6.97;2.90;;;13.40;87.80;;;;;;6134809;23;20020;-84
2023/05/18 09:12:41;;;;;;;8.85;2.00;;;13.40;86.80;;;;;;6159367;23;20005;-83
2023/05/18 09:15:10;;;;;;;8.55;2.30;;;13.40;87.10;;;;;;6184670;23;20028;-82
2023/05/18 09:17:35;;;;;;;5.45;2.00;;;13.50;86.60;;;;;;6159656;23;20055;-83
2023/05/18 09:20:04;;;;;;;8.20;2.63;;;13.40;86.10;;;;;;6135211;23;20025;-83
2023/05/18 09:22:30;;;;;;;6.80;2.50;;;13.40;86.00;;;;;;6185737;23;20312;-84
2023/05/18 09:24:56;;;;;;;6.13;1.95;;;13.50;86.00;;;;;;6135442;23;20001;-83
2023/05/18 09:27:22;;;;;;;4.15;2.17;;;13.50;85.70;;;;;;6186166;23;20355;-83
2023/05/18 09:29:56;;;;;;;8.57;2.53;;;13.50;85.80;;;;;;6134698;23;20009;-84
2023/05/18 09:32:23;;;;;;;7.47;2.92;;;13.60;86.20;;;;;;6160076;23;19997;-84
2023/05/18 09:34:49;;;;;;;7.65;2.47;;;13.50;84.40;;;;;;6184532;23;20020;-84
2023/05/18 09:37:21;;;;;;;4.93;1.88;;;13.50;84.80;;;;;;6160122;23;20009;-84
2023/05/18 09:40:07;;;;;;;7.75;2.30;;;13.60;85.20;;;;;;6136318;23;20009;-83
2023/05/18 09:42:41;;;;;;;7.53;2.33;;;13.70;85.30;;;;;;6162341;23;20001;-83
2023/05/18 09:45:25;;;;;;;4.15;1.92;;;13.70;85.00;;;;;;6192667;23;19997;-84
2023/05/18 09:47:57;;;;;;;7.43;2.88;;;13.80;85.10;;;;;;6169670;23;20005;-84
2023/05/18 09:50:24;;;;;;;6.53;2.40;;;13.80;84.60;;;;;;6175018;23;20067;-84
2023/05/18 09:52:50;;;;;;;7.95;3.10;;;13.70;84.00;;;;;;6159170;23;20012;-83
2023/05/18 09:55:17;;;;;;;6.10;2.22;;;13.70;84.50;;;;;;6208974;23;20001;-84
2023/05/18 09:57:45;;;;;;;6.05;2.20;;;13.80;84.50;;;;;;6178580;23;20024;-83
2023/05/18 10:00:12;;;;;;;7.72;2.75;;;13.80;84.40;;;;;;6174011;23;20339;-84
2023/05/18 10:02:47;;;;;;;9.07;2.25;;;13.80;83.20;;;;;;6164450;23;20001;-83
2023/05/18 10:05:21;;;;;;;8.25;2.50;;;13.70;83.40;;;;;;6162079;23;19997;-84
2023/05/18 10:07:47;;;;;;;6.57;2.42;;;13.70;84.00;;;;;;6161781;23;20001;-83
2023/05/18 10:10:17;;;;;;;8.30;2.20;;;13.70;84.30;;;;;;6187684;23;20013;-83
2023/05/18 10:12:43;;;;;;;7.18;2.50;;;13.80;84.40;;;;;;6160799;23;20082;-84
2023/05/18 10:15:13;;;;;;;6.50;2.70;;;13.90;83.80;;;;;;6136650;23;20427;-84
2023/05/18 10:17:41;;;;;;;9.27;2.45;;;13.80;83.40;;;;;;6187633;23;20012;-84
2023/05/18 10:20:09;;;;;;;8.93;2.50;;;13.80;83.50;;;;;;6161300;23;20383;-84
2023/05/18 10:22:36;;;;;;;8.82;2.40;;;13.80;83.20;;;;;;6186912;23;20071;-84
2023/05/18 10:25:08;;;;;;;7.55;2.58;;;13.70;83.10;;;;;;6160942;23;20005;-84
2023/05/18 10:27:35;;;;;;;6.10;2.20;;;13.80;83.70;;;;;;6160693;23;20072;-83
2023/05/18 10:30:04;;;;;;;7.22;2.35;;;13.80;84.20;;;;;;6160879;23;20009;-84
2023/05/18 10:32:34;;;;;;;5.80;2.35;;;13.90;83.90;;;;;;6136533;23;20092;-84
2023/05/18 10:35:06;;;;;;;6.10;2.30;;;13.90;83.60;;;;;;6187543;23;20368;-83
2023/05/18 10:37:34;;;;;;;4.60;2.30;;;13.90;83.60;;;;;;6185200;23;20312;-82
2023/05/18 10:40:02;;;;;;;6.68;2.42;;;14.00;83.50;;;;;;6160972;23;20088;-84
2023/05/18 10:42:30;;;;;;;5.20;2.45;;;14.00;82.80;;;;;;6161119;23;20423;-84
2023/05/18 10:44:56;;;;;;;6.25;2.15;;;13.90;82.40;;;;;;6160546;23;20001;-85
2023/05/18 10:47:27;;;;;;;7.35;2.15;;;14.00;82.90;;;;;;6160622;23;20001;-83
2023/05/18 10:49:53;;;;;;;5.85;1.90;;;13.90;82.70;;;;;;6160681;23;20428;-83
2023/05/18 10:52:19;;;;;;;8.52;2.47;;;14.00;82.60;;;;;;6136257;23;20040;-83
2023/05/18 10:54:47;;;;;;;6.97;2.20;;;14.00;81.90;;;;;;6160574;23;20382;-84
2023/05/18 10:57:16;;;;;;;5.47;2.30;;;13.90;82.10;;;;;;6187119;23;20051;-83
2023/05/18 10:59:43;;;;;;;8.65;2.78;;;14.00;82.50;;;;;;6186738;23;20084;-83
2023/05/18 11:02:15;;;;;;;4.95;2.10;;;14.00;82.30;;;;;;6136310;23;20005;-84
2023/05/18 11:04:41;;;;;;;6.55;2.47;;;14.00;82.40;;;;;;6185366;23;20008;-84
2023/05/18 11:07:11;;;;;;;3.78;1.50;;;14.00;81.90;;;;;;6160608;23;20008;-84
2023/05/18 11:09:41;;;;;;;7.43;2.72;;;14.00;82.10;;;;;;6112013;23;20120;-84
2023/05/18 11:12:16;;;;;;;5.60;2.20;;;14.10;81.90;;;;;;6184142;23;20271;-83
2023/05/18 11:14:52;;;;;;;4.55;1.98;;;14.10;81.80;;;;;;6185288;23;20052;-84
2023/05/18 11:17:23;;;;;;;6.32;2.25;;;14.10;81.30;;;;;;6187313;23;20001;-83
2023/05/18 11:22:44;;;;;;;8.23;3.20;;;14.10;81.60;;;;;;6188271;23;20004;-84
2023/05/18 11:25:33;;;;;;;5.82;2.45;;;14.10;81.00;;;;;;6161162;23;19997;-84
2023/05/18 11:28:03;;;;;;;6.85;2.38;;;14.10;80.80;;;;;;6190451;23;20021;-84
2023/05/18 11:30:32;;;;;;;8.20;2.30;;;14.10;80.60;;;;;;6173143;23;19993;-84
2023/05/18 11:33:12;;;;;;;4.68;2.10;;;14.10;81.00;;;;;;6187758;23;19989;-82
2023/05/18 11:36:13;;;;;;;5.80;2.25;;;14.20;81.20;;;;;;6188205;23;20092;-83
2023/05/18 11:39:09;;;;;;;5.13;2.33;;;14.30;81.30;;;;;;6213896;23;20574;-81
2023/05/18 11:41:45;;;;;;;5.32;2.28;;;14.40;81.40;;;;;;6193164;23;20004;-84
2023/05/18 11:44:11;;;;;;;9.05;2.97;;;14.40;81.50;;;;;;6186652;23;20012;-84
2023/05/18 11:46:40;;;;;;;6.72;2.70;;;14.50;80.80;;;;;;6160673;23;20328;-83
2023/05/18 11:49:09;;;;;;;9.55;2.55;;;14.60;80.20;;;;;;6160755;23;20009;-84
2023/05/18 11:52:00;;;;;;;5.20;2.40;;;14.50;79.60;;;;;;6186657;23;20005;-84
2023/05/18 11:54:26;;;;;;;5.53;2.15;;;14.50;80.20;;;;;;6160585;23;20027;-84
2023/05/18 11:56:52;;;;;;;5.10;2.15;;;14.40;80.10;;;;;;6185196;23;20012;-84
2023/05/18 11:59:42;;;;;;;3.90;2.10;;;14.50;80.60;;;;;;6135920;23;20009;-83
2023/05/18 12:02:10;;;;;;;5.53;2.43;;;14.60;80.60;;;;;;6186697;23;20001;-83
2023/05/18 12:04:45;;;;;;;4.88;2.05;;;14.70;80.40;;;;;;6185813;23;20224;-84
2023/05/18 12:07:11;;;;;;;4.90;2.20;;;14.80;80.60;;;;;;6160345;23;20001;-84
2023/05/18 12:09:43;;;;;;;8.63;2.60;;;14.80;80.40;;;;;;6186472;23;20009;-83
2023/05/18 12:12:10;;;;;;;9.40;2.92;;;14.80;79.80;;;;;;6186222;23;20083;-83
2023/05/18 12:14:46;;;;;;;5.25;2.33;;;14.90;80.20;;;;;;6135816;23;20009;-84
2023/05/18 12:17:12;;;;;;;8.00;2.80;;;15.00;80.30;;;;;;6160125;23;20463;-84
2023/05/18 12:19:48;;;;;;;7.75;2.60;;;15.10;80.40;;;;;;6160167;23;20051;-84
2023/05/18 12:22:13;;;;;;;8.02;2.72;;;15.20;80.10;;;;;;6186449;23;19997;-84
2023/05/18 12:24:42;;;;;;;5.60;2.28;;;15.20;79.50;;;;;;6160412;23;20032;-84
2023/05/18 12:27:10;;;;;;;6.50;2.55;;;15.30;79.50;;;;;;6186637;23;20371;-84
2023/05/18 12:29:40;;;;;;;7.60;2.45;;;15.40;79.70;;;;;;6160684;23;20009;-84
2023/05/18 12:32:11;;;;;;;4.95;2.42;;;15.40;79.30;;;;;;6184767;23;20009;-83
2023/05/18 12:34:37;;;;;;;6.80;2.90;;;15.40;79.40;;;;;;6159481;23;20420;-83
2023/05/18 12:37:04;;;;;;;5.93;2.13;;;15.40;79.00;;;;;;6186167;23;20435;-83
2023/05/18 12:39:30;;;;;;;4.30;2.38;;;15.40;78.60;;;;;;6135125;23;20013;-83
2023/05/18 12:42:13;;;;;;;6.13;2.42;;;15.40;77.70;;;;;;6159920;23;20001;-83
2023/05/18 12:44:42;;;;;;;6.50;2.70;;;15.40;77.40;;;;;;6186309;23;20258;-83
2023/05/18 12:47:12;;;;;;;7.18;2.95;;;15.30;77.30;;;;;;6184365;23;20016;-83
2023/05/18 12:49:39;;;;;;;7.72;2.88;;;15.30;77.60;;;;;;6186429;23;20015;-83
2023/05/18 12:52:13;;;;;;;5.25;2.58;;;15.40;78.40;;;;;;6159589;23;20012;-83
2023/05/18 12:54:58;;;;;;;6.45;2.65;;;15.50;79.00;;;;;;6186090;23;20008;-83
2023/05/18 12:57:25;;;;;;;5.32;2.80;;;15.60;78.50;;;;;;6161101;23;20005;-83
2023/05/18 12:59:59;;;;;;;5.03;2.63;;;15.70;77.70;;;;;;6160074;23;20009;-83
2023/05/18 13:02:36;;;;;;;7.82;2.90;;;15.60;77.20;;;;;;6186482;23;19997;-83